• Join FlightAware (Why Join?)
  • Login
  • US Flag 
01:21AM EDT


 

Airport Tracker/Info


-or-


 

Live Flight TrackerFlight Track Log ✈ AMF1981 ✈ 03-May-2012 ✈ KMWH - KBFI

Flight Track Log - Related Links

Times and Time Zones

All times are in EDT time to prevent confusion due to time zone crossing. See the AMF1981 flight status page for this flight to view local times or setup timezone preferences in your user account.

Time Position Orientation Groundspeed Altitude Reporting Facility
EDT Latitude Longitude Course Direction KTS MPH feet Rate Location/Type
07:59PM 47.2215 -119.4172 North  Level FlightAware Approximate
08:00PM 47.2318 -119.4957 28° Northeast  Level FlightAware Approximate
08:00PM 47.3453 -119.4053 322° Northwest 188 216 6,800  Level Seattle Center
08:01PM 47.3822 -119.4478 288° West 179 206 8,200 1,380 Climbing Seattle Center
08:02PM 47.3958 -119.5106 285° West 161 185 9,700 1,260 Climbing Seattle Center
08:03PM 47.4083 -119.5792 286° West 173 199 10,800 1,080 Climbing Seattle Center
08:04PM 47.4219 -119.6486 287° West 176 203 11,900 600 Climbing Seattle Center
08:05PM 47.4375 -119.7253 289° West 193 222 12,100 60 Climbing Seattle Center
08:07PM 47.4597 -119.8186 288° West 201 231 12,100  Level Seattle Center
08:08PM 47.4767 -119.8961 288° West 201 231 12,200  Climbing Seattle Center
08:09PM 47.4939 -119.9767 286° West 204 235 12,100 -60 Descending Seattle Center
08:10PM 47.5100 -120.0578 286° West 206 237 12,100  Level Seattle Center
08:11PM 47.5253 -120.1356 285° West 200 230 12,100  Level Seattle Center
08:12PM 47.5394 -120.2158 287° West 201 231 12,100  Level Seattle Center
08:13PM 47.5558 -120.2956 286° West 202 232 12,100  Level Seattle Center
08:14PM 47.5719 -120.3775 285° West 207 238 12,100  Level Seattle Center
08:15PM 47.5864 -120.4556 288° West 199 229 12,100  Level Seattle Center
08:16PM 47.6039 -120.5336 290° West 199 229 12,100  Level Seattle Center
08:17PM 47.6267 -120.6261 288° West 199 229 12,100  Level Seattle Center
08:18PM 47.6433 -120.7028 290° West 198 228 12,100 -60 Level Seattle Center
08:19PM 47.6617 -120.7789 285° West 196 226 12,000  Descending Seattle Center
08:20PM 47.6747 -120.8519 271° West 196 226 12,100  Climbing Seattle Center
08:21PM 47.6761 -120.9333 270° West 197 227 12,100 -60 Level Seattle Center
08:22PM 47.6758 -121.0117 273° West 193 222 12,000  Descending Seattle Center
08:23PM 47.6792 -121.1069 278° West 195 224 12,100  Climbing Seattle Center
08:24PM 47.6869 -121.1875 280° West 200 230 12,100 -60 Level Seattle Center
08:25PM 47.6933 -121.2394 278° West 208 239 12,000 -480 Descending Seattle Center
08:26PM 47.7047 -121.3539 290° West 209 241 11,200 -660 Descending Seattle Center
08:27PM 47.7278 -121.4478 274° West 212 244 10,500 -600 Descending Seattle Center
08:28PM 47.7308 -121.5189 271° West 208 239 10,100 -300 Descending Seattle Center
08:29PM 47.7319 -121.6003 240° Southwest 202 232 10,000  Descending Seattle Center
08:30PM 47.7028 -121.6744 217° Southwest 191 220 10,100 -480 Climbing Seattle Center
08:31PM 47.6583 -121.7250 221° Southwest 206 237 9,100 -1,140 Descending Seattle Center
08:32PM 47.6072 -121.7906 223° Southwest 202 232 7,700 -1,140 Descending Seattle Center
08:33PM 47.5758 -121.8342 223° Southwest 201 231 6,800 -1,080 Descending Seattle Center
08:34PM 47.5358 -121.8897 222° Southwest 199 229 5,800 -840 Descending Seattle Center
08:35PM 47.4958 -121.9425 222° Southwest 196 226 5,200 -360 Descending Seattle Center
08:36PM 47.4567 -121.9944 223° Southwest 192 221 5,100 -60 Descending Seattle Center
08:37PM 47.4192 -122.0453 233° Southwest 186 214 5,100 -600 Level Seattle Center
08:38PM 47.3831 -122.1164 282° West 183 211 4,000 -1,260 Descending Seattle Center
08:39PM 47.3925 -122.1831 327° Northwest 175 201 2,600 -1,080 Descending Seattle Center
08:40PM 47.4339 -122.2231 330° Northwest 171 197 1,900 -600 Descending Seattle Center
08:41PM 47.4686 -122.2525 331° Northwest 135 155 1,400 -660 Descending Seattle Center
08:42PM 47.4961 -122.2747 331° Northwest 113 130 600 -660 Descending Seattle Center
08:43PM 47.5217 -122.2953 331° Northwest 109 125 100 -540 Descending Seattle Center